Terminal Aerodrome Forecast
Issued by NWS

Home | Current Version | Previous Version | Text Only | Print | Product List | Glossary On
Versions: 1 2 3 4 5 6 7 8 9 10 11 12 13 14 15 16 17 18 19 20 21
000
FTUS46 KLOX 220543
TAFOXR
TAF
KOXR 220543Z 2206/2306 27010KT P6SM SCT025 BKN050
     FM221200 27007KT P6SM VCSH BKN025 BKN050
     FM221800 26012KT P6SM VCSH SCT025 BKN050
     FM222100 27015G22KT P6SM BKN050
     FM230300 27010KT P6SM BKN025=

USA.gov is the U.S. government's official web portal to all federal, state and local government web resources and services.